createdAt,value
2024-04-10T00:00:13.799Z,7.97
2024-04-10T00:02:40.848Z,8.93
2024-04-10T00:05:14.691Z,13.30
2024-04-10T00:07:41.813Z,10.33
2024-04-10T00:10:11.565Z,11.87
2024-04-10T00:12:38.484Z,8.30
2024-04-10T00:15:08.668Z,10.23
2024-04-10T00:17:36.156Z,7.10
2024-04-10T00:20:06.837Z,5.23
2024-04-10T00:22:36.445Z,6.73
2024-04-10T00:25:06.533Z,9.87
2024-04-10T00:27:33.527Z,7.60
2024-04-10T00:30:03.187Z,8.53
2024-04-10T00:32:30.236Z,7.30
2024-04-10T00:35:00.040Z,11.10
2024-04-10T00:37:27.144Z,9.27
2024-04-10T00:39:59.407Z,6.40
2024-04-10T00:42:26.325Z,7.40
2024-04-10T00:44:57.167Z,11.20
2024-04-10T00:47:24.947Z,10.83
2024-04-10T00:49:55.053Z,6.70
2024-04-10T00:52:22.566Z,9.30
2024-04-10T00:54:52.112Z,6.90
2024-04-10T00:57:21.759Z,7.50
2024-04-10T00:59:52.830Z,9.43
2024-04-10T01:02:19.822Z,10.93
2024-04-10T01:04:50.445Z,8.13
2024-04-10T01:07:17.771Z,10.03
2024-04-10T01:09:47.307Z,7.50
2024-04-10T01:12:14.461Z,8.70
2024-04-10T01:14:46.680Z,7.63
2024-04-10T01:17:13.904Z,9.20
2024-04-10T01:19:43.545Z,10.30
2024-04-10T01:22:10.588Z,14.00
2024-04-10T01:24:42.753Z,7.50
2024-04-10T01:27:09.680Z,9.17
2024-04-10T01:29:39.743Z,9.97
2024-04-10T01:32:07.272Z,6.30
2024-04-10T01:34:37.421Z,14.60
2024-04-10T01:37:04.488Z,9.30
2024-04-10T01:39:34.048Z,9.70
2024-04-10T01:42:04.163Z,7.40
2024-04-10T01:44:33.947Z,9.47
2024-04-10T01:47:01.041Z,7.50
2024-04-10T01:49:30.746Z,11.13
2024-04-10T01:51:57.674Z,8.00
2024-04-10T01:54:27.193Z,7.77
2024-04-10T01:56:54.264Z,10.77
2024-04-10T01:59:26.517Z,12.10
2024-04-10T02:01:53.813Z,10.30
2024-04-10T02:04:23.460Z,10.33
2024-04-10T02:06:50.587Z,7.60
2024-04-10T02:09:20.116Z,9.60
2024-04-10T02:11:47.250Z,10.90
2024-04-10T02:14:16.964Z,7.77
2024-04-10T02:16:47.613Z,11.20
2024-04-10T02:19:17.242Z,14.40
2024-04-10T02:21:44.272Z,7.33
2024-04-10T02:24:14.768Z,9.43
2024-04-10T02:26:42.072Z,19.10
2024-04-10T02:29:11.872Z,8.33
2024-04-10T02:31:38.925Z,13.30
2024-04-10T02:34:11.399Z,7.97
2024-04-10T02:36:38.882Z,11.73
2024-04-10T02:39:10.125Z,10.10
2024-04-10T02:41:37.137Z,12.80
2024-04-10T02:44:07.083Z,11.10
2024-04-10T02:46:34.134Z,12.73
2024-04-10T02:49:03.694Z,13.60
2024-04-10T02:51:33.273Z,9.40
2024-04-10T02:54:02.900Z,10.30
2024-04-10T02:56:30.901Z,10.60
2024-04-10T02:59:00.700Z,10.63
2024-04-10T03:01:27.822Z,15.50
2024-04-10T03:03:57.781Z,10.43
2024-04-10T03:06:24.936Z,7.73
2024-04-10T03:08:57.057Z,10.03
2024-04-10T03:11:24.752Z,10.07
2024-04-10T03:13:57.024Z,9.93
2024-04-10T03:16:24.104Z,13.80
2024-04-10T03:18:53.699Z,14.57
2024-04-10T03:21:20.881Z,16.23
2024-04-10T03:23:50.471Z,24.70
2024-04-10T03:26:20.162Z,8.20
2024-04-10T03:28:50.111Z,11.27
2024-04-10T03:31:17.237Z,14.93
2024-04-10T03:33:46.828Z,10.43
2024-04-10T03:36:13.916Z,15.40
2024-04-10T03:38:43.527Z,12.47
2024-04-10T03:41:10.736Z,11.63
2024-04-10T03:43:42.922Z,9.40
2024-04-10T03:46:13.477Z,10.60
2024-04-10T03:48:40.987Z,14.73
2024-04-10T03:51:10.732Z,9.73
2024-04-10T03:53:38.002Z,14.23
2024-04-10T03:56:08.019Z,8.57
2024-04-10T03:58:42.635Z,17.10
2024-04-10T04:01:09.849Z,14.80
2024-04-10T04:03:39.854Z,12.70
2024-04-10T04:06:07.089Z,12.23
2024-04-10T04:08:36.746Z,13.10
2024-04-10T04:11:05.969Z,10.00
2024-04-10T04:13:35.890Z,10.23
2024-04-10T04:16:06.700Z,12.57
2024-04-10T04:18:36.601Z,12.23
2024-04-10T04:21:03.941Z,11.60
2024-04-10T04:23:33.567Z,10.70
2024-04-10T04:26:00.973Z,21.70
2024-04-10T04:28:30.560Z,12.13
2024-04-10T04:30:58.268Z,13.47
2024-04-10T04:33:30.658Z,11.80
2024-04-10T04:35:57.807Z,13.50
2024-04-10T04:38:27.464Z,12.77
2024-04-10T04:40:54.541Z,12.67
2024-04-10T04:43:24.877Z,15.27
2024-04-10T04:45:52.036Z,21.00
2024-04-10T04:48:21.764Z,13.13
2024-04-10T04:50:53.923Z,11.83
2024-04-10T04:53:24.908Z,14.73
2024-04-10T04:55:52.020Z,11.00
2024-04-10T04:58:24.448Z,18.27
2024-04-10T05:00:55.621Z,10.63
2024-04-10T05:03:37.671Z,10.40
2024-04-10T05:06:10.819Z,14.53
2024-04-10T05:08:37.863Z,14.30
2024-04-10T05:11:10.616Z,11.53
2024-04-10T05:13:38.208Z,11.10
2024-04-10T05:16:08.055Z,13.40
2024-04-10T05:18:35.257Z,12.47
2024-04-10T05:21:04.853Z,13.13
2024-04-10T05:23:34.778Z,16.30
2024-04-10T05:26:05.772Z,14.00
2024-04-10T05:28:32.962Z,8.27
2024-04-10T05:31:05.877Z,13.63
2024-04-10T05:33:33.028Z,15.97
2024-04-10T05:36:02.976Z,13.60
2024-04-10T05:38:33.902Z,16.47
2024-04-10T05:41:04.898Z,17.63
2024-04-10T05:43:32.212Z,13.37
2024-04-10T05:46:01.809Z,13.40
2024-04-10T05:48:29.127Z,14.63
2024-04-10T05:51:02.490Z,14.33
2024-04-10T05:53:31.674Z,23.43
2024-04-10T05:56:05.683Z,14.27
2024-04-10T05:58:33.283Z,19.70
2024-04-10T06:01:09.151Z,14.53
2024-04-10T06:03:36.438Z,16.20
2024-04-10T06:06:14.093Z,16.43
2024-04-10T06:08:41.522Z,25.27
2024-04-10T06:11:13.953Z,16.37
2024-04-10T06:13:41.104Z,13.00
2024-04-10T06:16:10.926Z,14.10
2024-04-10T06:18:38.248Z,12.73
2024-04-10T06:21:08.658Z,16.20
2024-04-10T06:23:36.219Z,15.53
2024-04-10T06:26:06.520Z,15.50
2024-04-10T06:28:37.193Z,13.50
2024-04-10T06:31:08.443Z,13.40
2024-04-10T06:33:35.640Z,13.53
2024-04-10T06:36:06.400Z,16.10
2024-04-10T06:38:34.039Z,11.80
2024-04-10T06:41:05.449Z,14.40
2024-04-10T06:43:35.367Z,17.30
2024-04-10T06:46:06.562Z,18.50
2024-04-10T06:48:33.874Z,13.40
2024-04-10T06:51:06.195Z,12.80
2024-04-10T06:53:35.051Z,13.23
2024-04-10T06:56:06.356Z,14.20
2024-04-10T06:58:37.953Z,13.00
2024-04-10T07:01:09.048Z,16.60
2024-04-10T07:03:40.182Z,17.23
2024-04-10T07:06:08.182Z,14.40
2024-04-10T07:08:43.227Z,16.13
2024-04-10T07:11:16.089Z,24.23
2024-04-10T07:13:51.150Z,17.60
2024-04-10T07:16:19.201Z,21.43
2024-04-10T07:18:49.280Z,14.60
2024-04-10T07:21:17.510Z,10.87
2024-04-10T07:23:48.696Z,13.80
2024-04-10T07:26:17.728Z,17.07
2024-04-10T07:28:51.952Z,11.67
2024-04-10T07:31:21.276Z,12.40
2024-04-10T07:33:52.838Z,22.27
2024-04-10T07:36:21.541Z,9.10
2024-04-10T07:38:52.093Z,15.50
2024-04-10T07:41:19.127Z,15.67
2024-04-10T07:43:52.540Z,14.73
2024-04-10T07:46:20.899Z,11.87
2024-04-10T07:48:52.392Z,8.77
2024-04-10T07:51:19.755Z,10.00
2024-04-10T07:53:49.396Z,15.40
2024-04-10T07:56:16.846Z,13.40
2024-04-10T07:58:47.187Z,13.27
2024-04-10T08:01:18.842Z,13.30
2024-04-10T08:03:49.327Z,14.70
2024-04-10T08:06:16.374Z,11.40
2024-04-10T08:08:46.981Z,13.17
2024-04-10T08:11:18.519Z,11.30
2024-04-10T08:13:48.938Z,11.77
2024-04-10T08:16:18.986Z,14.73
2024-04-10T08:18:48.756Z,12.57
2024-04-10T08:21:16.389Z,9.50
2024-04-10T08:23:47.621Z,21.07
2024-04-10T08:26:16.100Z,12.83
2024-04-10T08:28:50.065Z,13.17
2024-04-10T08:31:22.525Z,14.97
2024-04-10T08:33:53.989Z,9.67
2024-04-10T08:36:22.484Z,10.77
2024-04-10T08:38:52.401Z,16.90
2024-04-10T08:41:20.611Z,10.93
2024-04-10T08:43:51.336Z,16.13
2024-04-10T08:46:22.665Z,12.83
2024-04-10T08:48:55.566Z,10.90
2024-04-10T08:51:24.470Z,14.77
2024-04-10T08:53:55.924Z,8.63
2024-04-10T08:56:23.028Z,13.10
2024-04-10T08:58:52.820Z,25.27
2024-04-10T09:01:30.197Z,12.33
2024-04-10T09:04:00.204Z,14.33
2024-04-10T09:06:27.450Z,11.57
2024-04-10T09:09:00.408Z,11.97
2024-04-10T09:11:28.068Z,15.33
2024-04-10T09:14:05.102Z,12.67
2024-04-10T09:16:35.555Z,12.20
2024-04-10T09:19:12.558Z,11.37
2024-04-10T09:21:39.946Z,11.50
2024-04-10T09:24:10.237Z,12.00
2024-04-10T09:26:37.688Z,16.57
2024-04-10T09:29:08.449Z,15.20
2024-04-10T09:31:39.382Z,14.53
2024-04-10T09:34:09.917Z,10.37
2024-04-10T09:36:38.924Z,8.90
2024-04-10T09:39:09.345Z,8.13
2024-04-10T09:41:37.982Z,11.33
2024-04-10T09:44:08.362Z,9.97
2024-04-10T09:46:39.193Z,9.40
2024-04-10T09:49:13.691Z,17.17
2024-04-10T09:51:41.734Z,10.40
2024-04-10T09:54:12.577Z,11.60
2024-04-10T09:56:42.345Z,12.70
2024-04-10T09:59:16.424Z,13.20
2024-04-10T10:01:45.980Z,12.47
2024-04-10T10:04:15.581Z,10.10
2024-04-10T10:06:42.900Z,10.47
2024-04-10T10:09:12.453Z,10.07
2024-04-10T10:11:39.435Z,14.03
2024-04-10T10:14:11.492Z,8.33
2024-04-10T10:16:38.585Z,10.20
2024-04-10T10:19:10.935Z,9.97
2024-04-10T10:21:38.254Z,13.17
2024-04-10T10:24:10.932Z,11.13
2024-04-10T10:26:38.047Z,13.20
2024-04-10T10:29:10.425Z,10.80
2024-04-10T10:31:39.006Z,11.00
2024-04-10T10:34:13.659Z,7.83
2024-04-10T10:36:43.138Z,12.27
2024-04-10T10:39:15.862Z,8.93
2024-04-10T10:41:43.289Z,11.83
2024-04-10T10:44:12.976Z,13.23
2024-04-10T10:46:40.603Z,9.47
2024-04-10T10:49:13.013Z,9.73
2024-04-10T10:51:40.115Z,10.77
2024-04-10T10:54:09.751Z,12.53
2024-04-10T10:56:37.349Z,9.90
2024-04-10T10:59:15.326Z,11.87
2024-04-10T11:01:42.716Z,7.40
2024-04-10T11:04:20.982Z,10.63
2024-04-10T11:06:48.247Z,14.20
2024-04-10T11:09:18.911Z,9.00
2024-04-10T11:11:46.735Z,12.93
2024-04-10T11:14:17.564Z,10.43
2024-04-10T11:16:44.818Z,8.57
2024-04-10T11:19:17.002Z,12.37
2024-04-10T11:21:47.469Z,8.10
2024-04-10T11:24:17.099Z,8.53
2024-04-10T11:26:44.230Z,10.97
2024-04-10T11:29:14.088Z,10.70
2024-04-10T11:31:41.054Z,7.87
2024-04-10T11:34:11.644Z,7.60
2024-04-10T11:36:41.327Z,8.90
2024-04-10T11:39:13.012Z,7.93
2024-04-10T11:41:40.138Z,9.53
2024-04-10T11:44:09.705Z,9.40
2024-04-10T11:46:36.629Z,9.00
2024-04-10T11:49:06.395Z,13.20
2024-04-10T11:51:33.434Z,10.13
2024-04-10T11:54:05.695Z,10.10
2024-04-10T11:56:32.756Z,11.47
2024-04-10T11:59:02.357Z,11.20
2024-04-10T12:01:29.354Z,8.70
2024-04-10T12:03:59.698Z,8.07
2024-04-10T12:06:26.754Z,12.03
2024-04-10T12:08:56.513Z,5.70
2024-04-10T12:11:26.525Z,5.87
2024-04-10T12:13:56.328Z,9.83
2024-04-10T12:16:25.768Z,9.90
2024-04-10T12:18:55.484Z,11.07
2024-04-10T12:21:22.716Z,10.07
2024-04-10T12:23:52.356Z,7.00
2024-04-10T12:26:19.442Z,8.93
2024-04-10T12:28:51.928Z,8.37
2024-04-10T12:31:18.951Z,9.17
2024-04-10T12:33:48.733Z,10.30
2024-04-10T12:36:34.222Z,7.80
2024-04-10T12:39:05.670Z,8.83
2024-04-10T12:41:35.564Z,9.40
2024-04-10T12:44:20.061Z,6.77
2024-04-10T12:46:49.839Z,6.10
2024-04-10T12:49:19.514Z,11.10
2024-04-10T12:51:49.303Z,7.47
2024-04-10T12:54:17.051Z,6.20
2024-04-10T12:56:49.236Z,6.63
2024-04-10T12:59:19.196Z,6.53
2024-04-10T13:01:48.767Z,5.20
2024-04-10T13:04:15.981Z,7.23
2024-04-10T13:06:46.678Z,5.80
2024-04-10T13:09:14.045Z,6.27
2024-04-10T13:11:44.160Z,6.43
2024-04-10T13:14:11.263Z,9.40
2024-04-10T13:16:43.748Z,6.17
2024-04-10T13:19:10.858Z,8.33
2024-04-10T13:21:40.739Z,6.97
2024-04-10T13:24:08.134Z,6.30
2024-04-10T13:26:40.831Z,6.53
2024-04-10T13:29:08.029Z,9.30
2024-04-10T13:31:37.708Z,5.20
2024-04-10T13:34:07.514Z,8.40
2024-04-10T13:36:37.262Z,5.87
2024-04-10T13:39:04.703Z,12.47
2024-04-10T13:41:36.618Z,7.63
2024-04-10T13:44:05.196Z,13.73
2024-04-10T13:46:35.752Z,10.03
2024-04-10T13:49:02.847Z,6.67
2024-04-10T13:51:36.230Z,7.00
2024-04-10T13:54:03.405Z,7.73
2024-04-10T13:56:33.099Z,6.13
2024-04-10T13:59:00.144Z,7.53
2024-04-10T14:01:29.888Z,8.80
2024-04-10T14:03:57.547Z,8.23
2024-04-10T14:06:29.511Z,6.97
2024-04-10T14:08:59.799Z,7.87
2024-04-10T14:11:30.640Z,7.00
2024-04-10T14:13:57.758Z,7.40
2024-04-10T14:16:27.522Z,6.23
2024-04-10T14:18:54.612Z,8.87
2024-04-10T14:21:24.258Z,6.83
2024-04-10T14:23:51.327Z,8.40
2024-04-10T14:26:23.645Z,5.83
2024-04-10T14:28:50.734Z,9.60
2024-04-10T14:31:20.301Z,6.93
2024-04-10T14:33:47.871Z,6.83
2024-04-10T14:36:19.295Z,6.67
2024-04-10T14:38:47.776Z,7.43
2024-04-10T14:41:17.708Z,6.70
2024-04-10T14:43:50.106Z,11.33
2024-04-10T14:46:21.995Z,5.87
2024-04-10T14:48:49.548Z,5.90
2024-04-10T14:51:19.098Z,11.73
2024-04-10T14:53:46.217Z,8.23
2024-04-10T14:56:17.806Z,7.17
2024-04-10T14:58:49.367Z,7.53
2024-04-10T15:01:21.481Z,6.00
2024-04-10T15:03:49.655Z,7.23
2024-04-10T15:06:20.026Z,5.60
2024-04-10T15:08:48.358Z,6.80
2024-04-10T15:11:25.627Z,6.83
2024-04-10T15:13:56.928Z,6.37
2024-04-10T15:16:26.920Z,7.10
2024-04-10T15:18:55.422Z,6.17
2024-04-10T15:23:17.596Z,6.30
2024-04-10T15:25:53.200Z,6.43
2024-04-10T15:28:23.655Z,6.50
2024-04-10T15:31:01.658Z,6.70
2024-04-10T15:33:32.669Z,5.63
2024-04-10T15:36:01.164Z,5.90
2024-04-10T15:38:33.509Z,6.50
2024-04-10T15:41:02.440Z,7.10
2024-04-10T15:43:32.653Z,5.20
2024-04-10T15:46:01.198Z,10.00
2024-04-10T15:48:33.449Z,5.30
2024-04-10T15:51:01.766Z,5.57
2024-04-10T15:53:34.323Z,5.30
2024-04-10T15:56:02.720Z,6.03
2024-04-10T15:58:32.733Z,8.50
2024-04-10T16:01:02.196Z,5.67
2024-04-10T16:03:33.507Z,5.40
2024-04-10T16:06:01.104Z,8.30
2024-04-10T16:08:30.850Z,6.27
2024-04-10T16:11:00.526Z,5.10
2024-04-10T16:13:30.213Z,6.10
2024-04-10T16:16:05.206Z,7.23
2024-04-10T16:18:35.089Z,4.87
2024-04-10T16:21:04.230Z,5.37
2024-04-10T16:23:34.229Z,5.23
2024-04-10T16:26:10.081Z,6.13
2024-04-10T16:28:39.864Z,7.63
2024-04-10T16:31:08.122Z,7.30
2024-04-10T16:33:38.411Z,5.53
2024-04-10T16:36:07.472Z,5.53
2024-04-10T16:38:37.619Z,5.03
2024-04-10T16:41:04.972Z,4.77
2024-04-10T16:43:38.412Z,6.30
2024-04-10T16:46:07.460Z,4.90
2024-04-10T16:48:38.083Z,5.73
2024-04-10T16:51:07.333Z,7.73
2024-04-10T16:53:37.269Z,6.03
2024-04-10T16:56:06.324Z,5.07
2024-04-10T16:58:38.423Z,7.70
2024-04-10T17:01:10.160Z,5.73
2024-04-10T17:03:43.922Z,6.80
2024-04-10T17:06:11.529Z,5.60
2024-04-10T17:08:41.482Z,7.43
2024-04-10T17:11:14.102Z,4.90
2024-04-10T17:13:46.494Z,4.90
2024-04-10T17:16:14.635Z,6.93
2024-04-10T17:19:00.876Z,6.17
2024-04-10T17:21:50.100Z,7.97
2024-04-10T17:24:21.697Z,5.00
2024-04-10T17:26:51.343Z,5.80
2024-04-10T17:29:24.974Z,7.00
2024-04-10T17:31:52.800Z,8.43
2024-04-10T17:34:22.876Z,6.10
2024-04-10T17:36:50.155Z,6.83
2024-04-10T17:39:20.567Z,6.53
2024-04-10T17:41:48.592Z,5.77
2024-04-10T17:44:18.330Z,5.17
2024-04-10T17:46:48.178Z,6.93
2024-04-10T17:49:17.848Z,6.93
2024-04-10T17:51:44.935Z,7.63
2024-04-10T17:54:14.532Z,5.90
2024-04-10T17:56:41.531Z,6.00
2024-04-10T17:59:11.203Z,6.67
2024-04-10T18:01:38.565Z,6.27
2024-04-10T18:04:11.558Z,7.43
2024-04-10T18:06:39.081Z,5.90
2024-04-10T18:09:09.713Z,6.93
2024-04-10T18:11:37.029Z,4.70
2024-04-10T18:14:06.841Z,6.77
2024-04-10T18:16:34.761Z,6.20
2024-04-10T18:19:07.352Z,8.70
2024-04-10T18:21:37.135Z,7.10
2024-04-10T18:24:07.017Z,8.87
2024-04-10T18:26:34.480Z,5.93
2024-04-10T18:29:07.590Z,6.67
2024-04-10T18:31:35.686Z,7.63
2024-04-10T18:34:05.850Z,6.67
2024-04-10T18:36:32.855Z,6.27
2024-04-10T18:39:05.190Z,6.30
2024-04-10T18:41:34.793Z,7.80
2024-04-10T18:44:04.775Z,7.87
2024-04-10T18:46:32.037Z,7.67
2024-04-10T18:49:01.842Z,5.43
2024-04-10T18:51:28.952Z,7.72
2024-04-10T18:53:58.660Z,6.00
2024-04-10T18:56:28.381Z,6.17
2024-04-10T18:58:57.901Z,7.43
2024-04-10T19:01:25.874Z,5.43
2024-04-10T19:03:55.754Z,5.97
2024-04-10T19:06:25.086Z,5.97
2024-04-10T19:08:54.721Z,8.33
2024-04-10T19:11:22.104Z,6.37
2024-04-10T19:13:54.605Z,10.77
2024-04-10T19:16:21.819Z,5.50
2024-04-10T19:18:53.062Z,5.70
2024-04-10T19:21:20.273Z,9.00
2024-04-10T19:23:50.009Z,6.63
2024-04-10T19:26:17.484Z,6.17
2024-04-10T19:28:47.013Z,7.20
2024-04-10T19:31:16.537Z,6.90
2024-04-10T19:33:46.162Z,6.93
2024-04-10T19:36:14.922Z,6.07
2024-04-10T19:38:46.258Z,6.23
2024-04-10T19:41:14.572Z,6.97
2024-04-10T19:43:45.416Z,9.17
2024-04-10T19:46:12.724Z,6.97
2024-04-10T19:48:45.816Z,9.00
2024-04-10T19:51:13.112Z,8.53
2024-04-10T19:53:43.243Z,6.20
2024-04-10T19:56:12.352Z,6.20
2024-04-10T19:58:43.168Z,7.93
2024-04-10T20:01:11.979Z,7.13
2024-04-10T20:03:44.986Z,7.77
2024-04-10T20:06:12.697Z,9.93
2024-04-10T20:08:43.053Z,5.90
2024-04-10T20:11:11.123Z,7.50
2024-04-10T20:13:41.978Z,8.20
2024-04-10T20:16:10.762Z,10.60
2024-04-10T20:18:44.702Z,6.83
2024-04-10T20:21:13.214Z,6.33
2024-04-10T20:23:42.968Z,6.97
2024-04-10T20:26:11.115Z,6.20
2024-04-10T20:28:41.085Z,7.20
2024-04-10T20:31:09.352Z,9.33
2024-04-10T20:33:40.731Z,6.10
2024-04-10T20:36:12.110Z,6.23
2024-04-10T20:38:41.950Z,8.43
2024-04-10T20:41:11.611Z,8.67
2024-04-10T20:43:43.979Z,6.33
2024-04-10T20:46:12.144Z,10.13
2024-04-10T20:48:48.455Z,5.53
2024-04-10T20:51:19.235Z,11.30
2024-04-10T20:53:51.381Z,7.83
2024-04-10T20:56:21.343Z,6.53
2024-04-10T20:58:52.381Z,6.70
2024-04-10T21:01:21.006Z,7.37
2024-04-10T21:03:52.124Z,7.20
2024-04-10T21:06:21.892Z,10.67
2024-04-10T21:09:08.158Z,7.27
2024-04-10T21:11:54.465Z,7.10
2024-04-10T21:14:40.607Z,8.83
2024-04-10T21:17:26.242Z,6.60
2024-04-10T21:20:12.245Z,7.80
2024-04-10T21:23:00.283Z,9.63
2024-04-10T21:25:49.518Z,9.00
2024-04-10T21:28:36.243Z,6.47
2024-04-10T21:31:22.532Z,6.77
2024-04-10T21:34:08.215Z,6.27
2024-04-10T21:36:53.801Z,6.07
2024-04-10T21:39:41.808Z,8.87
2024-04-10T21:42:27.504Z,7.73
2024-04-10T21:45:13.234Z,7.60
2024-04-10T21:47:58.882Z,8.33
2024-04-10T21:50:46.367Z,6.20
2024-04-10T21:53:32.157Z,7.20
2024-04-10T21:56:22.207Z,7.50
2024-04-10T21:59:08.268Z,14.00
2024-04-10T22:02:04.653Z,7.30
2024-04-10T22:04:53.470Z,11.07
2024-04-10T22:07:39.539Z,7.27
2024-04-10T22:10:06.716Z,9.17
2024-04-10T22:12:40.057Z,9.90
2024-04-10T22:15:11.326Z,8.00
2024-04-10T22:17:57.501Z,7.20
2024-04-10T22:20:43.407Z,10.10
2024-04-10T22:23:28.933Z,7.50
2024-04-10T22:25:59.106Z,7.03
2024-04-10T22:28:31.883Z,7.03
2024-04-10T22:31:01.806Z,8.90
2024-04-10T22:33:32.475Z,8.80
2024-04-10T22:36:00.404Z,6.80
2024-04-10T22:38:30.370Z,7.53
2024-04-10T22:40:57.442Z,11.13
2024-04-10T22:43:27.298Z,9.10
2024-04-10T22:45:57.041Z,10.20
2024-04-10T22:48:26.851Z,6.83
2024-04-10T22:50:55.955Z,6.93
2024-04-10T22:53:25.672Z,12.03
2024-04-10T22:55:52.823Z,7.73
2024-04-10T22:58:22.587Z,5.90
2024-04-10T23:00:49.562Z,7.17
2024-04-10T23:03:22.018Z,6.90
2024-04-10T23:05:55.795Z,6.90
2024-04-10T23:08:32.917Z,10.90
2024-04-10T23:11:00.555Z,10.70
2024-04-10T23:13:30.470Z,8.13
2024-04-10T23:15:57.617Z,7.90
2024-04-10T23:18:41.852Z,9.47
2024-04-10T23:21:16.762Z,9.53
2024-04-10T23:23:46.553Z,9.93
2024-04-10T23:26:13.708Z,7.60
2024-04-10T23:28:45.333Z,9.50
2024-04-10T23:31:12.293Z,8.47
2024-04-10T23:33:44.584Z,9.03
2024-04-10T23:36:11.891Z,8.20
2024-04-10T23:38:41.488Z,10.87
2024-04-10T23:41:08.429Z,7.20
2024-04-10T23:43:38.159Z,9.97
2024-04-10T23:46:06.810Z,10.00
2024-04-10T23:48:36.669Z,9.60
2024-04-10T23:51:06.568Z,11.10
2024-04-10T23:53:36.419Z,7.50
2024-04-10T23:56:03.661Z,8.10
2024-04-10T23:58:33.326Z,11.23
